createdAt,value
2017-09-03T00:00:26.877Z,19.00
2017-09-03T00:02:54.442Z,17.77
2017-09-03T00:05:22.021Z,16.57
2017-09-03T00:07:49.603Z,17.00
2017-09-03T00:10:17.927Z,15.27
2017-09-03T00:12:45.510Z,16.93
2017-09-03T00:15:13.089Z,16.10
2017-09-03T00:17:40.653Z,21.80
2017-09-03T00:20:09.001Z,14.53
2017-09-03T00:22:37.397Z,15.13
2017-09-03T00:25:04.986Z,15.60
2017-09-03T00:27:32.576Z,17.37
2017-09-03T00:30:00.213Z,15.53
2017-09-03T00:32:27.776Z,19.73
2017-09-03T00:34:55.337Z,16.20
2017-09-03T00:37:22.939Z,16.80
2017-09-03T00:39:50.538Z,18.40
2017-09-03T00:42:18.170Z,17.60
2017-09-03T00:44:45.799Z,17.27
2017-09-03T00:47:13.415Z,20.17
2017-09-03T00:49:40.982Z,18.17
2017-09-03T00:52:08.554Z,16.10
2017-09-03T00:54:36.914Z,16.60
2017-09-03T00:57:04.499Z,17.10
2017-09-03T00:59:32.845Z,17.60
2017-09-03T01:02:00.511Z,21.10
2017-09-03T01:04:28.082Z,16.93
2017-09-03T01:06:55.641Z,17.70
2017-09-03T01:09:23.214Z,16.27
2017-09-03T01:11:50.782Z,16.23
2017-09-03T01:14:18.371Z,16.77
2017-09-03T01:16:46.053Z,18.40
2017-09-03T01:19:13.634Z,18.33
2017-09-03T01:21:41.201Z,22.63
2017-09-03T01:24:08.793Z,16.57
2017-09-03T01:26:36.375Z,18.77
2017-09-03T01:29:03.962Z,19.30
2017-09-03T01:31:31.567Z,17.57
2017-09-03T01:33:59.143Z,16.30
2017-09-03T01:36:26.733Z,17.40
2017-09-03T01:38:54.344Z,18.30
2017-09-03T01:41:21.931Z,18.20
2017-09-03T01:43:49.500Z,14.90
2017-09-03T01:46:17.106Z,15.83
2017-09-03T01:48:44.677Z,16.13
2017-09-03T01:51:12.222Z,17.40
2017-09-03T01:53:39.805Z,19.47
2017-09-03T01:56:07.389Z,18.10
2017-09-03T01:58:34.974Z,17.27
2017-09-03T02:01:02.535Z,15.83
2017-09-03T02:03:30.106Z,16.63
2017-09-03T02:05:57.702Z,18.33
2017-09-03T02:08:25.319Z,17.70
2017-09-03T02:10:52.923Z,18.20
2017-09-03T02:13:20.457Z,14.53
2017-09-03T02:15:48.085Z,17.97
2017-09-03T02:18:15.661Z,20.57
2017-09-03T02:20:43.246Z,17.77
2017-09-03T02:23:10.802Z,17.57
2017-09-03T02:25:38.413Z,17.73
2017-09-03T02:28:06.001Z,21.23
2017-09-03T02:30:33.597Z,19.20
2017-09-03T02:33:01.193Z,17.37
2017-09-03T02:35:28.765Z,19.33
2017-09-03T02:37:56.394Z,16.03
2017-09-03T02:40:23.993Z,13.93
2017-09-03T02:42:52.343Z,15.13
2017-09-03T02:45:19.966Z,20.50
2017-09-03T02:47:47.546Z,17.00
2017-09-03T02:50:15.078Z,24.17
2017-09-03T02:52:42.679Z,19.60
2017-09-03T02:55:10.266Z,15.43
2017-09-03T02:57:37.892Z,15.73
2017-09-03T03:00:05.478Z,18.90
2017-09-03T03:02:33.045Z,20.77
2017-09-03T03:05:00.662Z,18.03
2017-09-03T03:07:28.265Z,19.70
2017-09-03T03:09:55.878Z,17.33
2017-09-03T03:12:23.502Z,20.13
2017-09-03T03:14:51.091Z,20.17
2017-09-03T03:17:18.664Z,16.90
2017-09-03T03:19:46.238Z,16.70
2017-09-03T03:22:13.818Z,16.77
2017-09-03T03:24:41.397Z,16.97
2017-09-03T03:27:09.867Z,18.03
2017-09-03T03:29:37.470Z,21.00
2017-09-03T03:32:05.055Z,18.93
2017-09-03T03:34:32.661Z,20.30
2017-09-03T03:37:00.235Z,21.77
2017-09-03T03:39:27.803Z,24.10
2017-09-03T03:41:55.418Z,21.93
2017-09-03T03:44:22.986Z,24.20
2017-09-03T03:46:50.564Z,23.80
2017-09-03T03:49:18.152Z,19.00
2017-09-03T03:51:45.731Z,20.00
2017-09-03T03:54:13.310Z,23.60
2017-09-03T03:56:40.866Z,18.40
2017-09-03T03:59:08.507Z,18.23
2017-09-03T04:01:36.075Z,21.93
2017-09-03T04:04:03.663Z,19.83
2017-09-03T04:06:31.221Z,21.47
2017-09-03T04:08:58.790Z,17.60
2017-09-03T04:11:26.382Z,19.17
2017-09-03T04:13:53.962Z,18.33
2017-09-03T04:16:21.529Z,20.77
2017-09-03T04:18:49.098Z,16.63
2017-09-03T04:21:16.702Z,17.97
2017-09-03T04:23:44.289Z,20.53
2017-09-03T04:26:11.864Z,17.77
2017-09-03T04:28:39.431Z,15.10
2017-09-03T04:31:07.070Z,16.03
2017-09-03T04:33:34.704Z,20.03
2017-09-03T04:36:02.259Z,18.47
2017-09-03T04:38:29.837Z,16.57
2017-09-03T04:40:57.430Z,15.70
2017-09-03T04:43:25.016Z,19.03
2017-09-03T04:45:52.606Z,18.40
2017-09-03T04:48:20.223Z,20.97
2017-09-03T04:50:47.779Z,17.40
2017-09-03T04:53:15.396Z,17.93
2017-09-03T04:55:43.013Z,20.03
2017-09-03T04:58:10.597Z,22.40
2017-09-03T05:00:38.201Z,18.90
2017-09-03T05:03:05.767Z,13.83
2017-09-03T05:05:33.358Z,19.17
2017-09-03T05:08:00.973Z,17.53
2017-09-03T05:10:28.648Z,19.60
2017-09-03T05:12:57.005Z,16.00
2017-09-03T05:15:24.591Z,18.83
2017-09-03T05:17:52.186Z,19.60
2017-09-03T05:20:19.777Z,18.10
2017-09-03T05:22:47.362Z,18.07
2017-09-03T05:25:14.951Z,17.67
2017-09-03T05:27:42.534Z,19.30
2017-09-03T05:30:10.151Z,19.57
2017-09-03T05:32:37.756Z,16.73
2017-09-03T05:35:05.381Z,16.67
2017-09-03T05:37:32.986Z,18.90
2017-09-03T05:40:00.561Z,18.33
2017-09-03T05:42:28.237Z,19.00
2017-09-03T05:44:55.818Z,20.40
2017-09-03T05:47:23.421Z,19.93
2017-09-03T05:49:51.021Z,17.00
2017-09-03T05:52:18.624Z,20.47
2017-09-03T05:54:46.237Z,18.07
2017-09-03T05:57:13.826Z,15.30
2017-09-03T05:59:41.389Z,13.60
2017-09-03T06:02:08.986Z,12.43
2017-09-03T06:04:36.610Z,11.67
2017-09-03T06:07:04.161Z,13.47
2017-09-03T06:09:31.745Z,12.70
2017-09-03T06:11:59.320Z,12.07
2017-09-03T06:14:26.897Z,11.97
2017-09-03T06:16:54.475Z,10.60
2017-09-03T06:19:22.046Z,11.67
2017-09-03T06:21:49.621Z,9.60
2017-09-03T06:24:17.184Z,11.77
2017-09-03T06:26:44.792Z,9.63
2017-09-03T06:29:12.402Z,10.47
2017-09-03T06:31:39.992Z,11.27
2017-09-03T06:34:08.342Z,8.83
2017-09-03T06:36:35.901Z,11.53
2017-09-03T06:39:03.480Z,10.43
2017-09-03T06:41:31.810Z,10.53
2017-09-03T06:43:59.406Z,12.93
2017-09-03T06:46:26.976Z,11.07
2017-09-03T06:48:54.545Z,10.50
2017-09-03T06:51:22.905Z,12.50
2017-09-03T06:53:50.474Z,21.00
2017-09-03T06:56:18.102Z,14.30
2017-09-03T06:58:45.666Z,10.30
2017-09-03T07:01:13.292Z,12.47
2017-09-03T07:03:40.880Z,13.43
2017-09-03T07:06:08.463Z,12.47
2017-09-03T07:08:36.026Z,16.73
2017-09-03T07:11:03.605Z,9.83
2017-09-03T07:13:31.210Z,12.33
2017-09-03T07:15:58.774Z,10.70
2017-09-03T07:18:26.405Z,9.87
2017-09-03T07:20:54.005Z,10.37
2017-09-03T07:23:21.598Z,13.23
2017-09-03T07:25:49.165Z,10.90
2017-09-03T07:28:16.734Z,10.60
2017-09-03T07:30:44.327Z,13.10
2017-09-03T07:33:12.004Z,12.30
2017-09-03T07:35:39.601Z,11.50
2017-09-03T07:38:07.200Z,12.13
2017-09-03T07:40:34.774Z,11.93
2017-09-03T07:43:02.358Z,14.83
2017-09-03T07:45:29.946Z,15.43
2017-09-03T07:47:57.559Z,13.53
2017-09-03T07:50:25.134Z,14.70
2017-09-03T07:52:52.733Z,11.83
2017-09-03T07:55:20.298Z,13.87
2017-09-03T07:57:47.926Z,11.17
2017-09-03T08:00:15.510Z,13.27
2017-09-03T08:02:43.122Z,13.43
2017-09-03T08:05:10.687Z,11.83
2017-09-03T08:07:38.278Z,12.60
2017-09-03T08:10:05.885Z,16.40
2017-09-03T08:12:33.453Z,12.63
2017-09-03T08:15:01.007Z,12.10
2017-09-03T08:17:28.698Z,13.50
2017-09-03T08:19:56.463Z,16.40
2017-09-03T08:22:24.167Z,17.17
2017-09-03T08:24:51.758Z,17.13
2017-09-03T08:27:20.098Z,14.83
2017-09-03T08:29:47.679Z,14.77
2017-09-03T08:32:15.234Z,14.10
2017-09-03T08:34:42.818Z,14.43
2017-09-03T08:37:11.151Z,15.10
2017-09-03T08:39:38.746Z,14.90
2017-09-03T08:42:06.316Z,15.73
2017-09-03T08:44:34.880Z,14.90
2017-09-03T08:47:02.489Z,18.00
2017-09-03T08:49:30.095Z,18.50
2017-09-03T08:51:58.667Z,18.57
2017-09-03T08:54:30.487Z,14.87
2017-09-03T08:56:58.099Z,18.50
2017-09-03T08:59:25.717Z,15.30
2017-09-03T09:01:53.313Z,14.70
2017-09-03T09:04:20.889Z,18.00
2017-09-03T09:06:48.463Z,15.90
2017-09-03T09:09:16.045Z,15.50
2017-09-03T09:11:43.625Z,18.93
2017-09-03T09:14:11.229Z,15.33
2017-09-03T09:16:38.812Z,18.33
2017-09-03T09:19:07.177Z,14.13
2017-09-03T09:21:34.778Z,14.03
2017-09-03T09:24:03.113Z,12.60
2017-09-03T09:26:30.722Z,12.20
2017-09-03T09:28:58.305Z,11.00
2017-09-03T09:31:25.902Z,11.23
2017-09-03T09:33:53.494Z,11.47
2017-09-03T09:36:21.056Z,11.27
2017-09-03T09:38:48.650Z,10.47
2017-09-03T09:41:16.321Z,9.60
2017-09-03T09:43:43.886Z,12.47
2017-09-03T09:46:11.462Z,8.90
2017-09-03T09:48:39.031Z,12.07
2017-09-03T09:51:06.609Z,8.07
2017-09-03T09:53:34.170Z,9.50
2017-09-03T09:56:01.852Z,9.13
2017-09-03T09:58:30.276Z,8.67
2017-09-03T10:00:57.882Z,8.53
2017-09-03T10:03:25.456Z,9.70
2017-09-03T10:05:53.047Z,9.50
2017-09-03T10:08:20.609Z,8.13
2017-09-03T10:10:48.198Z,7.53
2017-09-03T10:13:15.775Z,6.67
2017-09-03T10:15:43.339Z,8.17
2017-09-03T10:18:10.899Z,5.80
2017-09-03T10:20:38.562Z,8.07
2017-09-03T10:23:06.119Z,7.90
2017-09-03T10:25:33.702Z,8.23
2017-09-03T10:28:02.040Z,4.20
2017-09-03T10:30:29.630Z,6.80
2017-09-03T10:32:57.203Z,5.60
2017-09-03T10:35:24.794Z,7.53
2017-09-03T10:37:52.370Z,5.73
2017-09-03T10:40:19.945Z,7.07
2017-09-03T10:42:47.531Z,6.13
2017-09-03T10:45:15.121Z,5.73
2017-09-03T10:47:42.858Z,5.90
2017-09-03T10:50:10.418Z,7.03
2017-09-03T10:52:38.853Z,5.57
2017-09-03T10:55:06.450Z,5.83
2017-09-03T10:57:34.037Z,6.90
2017-09-03T11:00:01.591Z,5.80
2017-09-03T11:02:30.480Z,4.57
2017-09-03T11:04:58.124Z,5.80
2017-09-03T11:07:25.746Z,4.77
2017-09-03T11:09:53.413Z,6.43
2017-09-03T11:12:21.046Z,3.80
2017-09-03T11:14:48.664Z,4.60
2017-09-03T11:17:16.222Z,4.87
2017-09-03T11:19:43.781Z,4.80
2017-09-03T11:22:11.381Z,5.43
2017-09-03T11:24:39.754Z,4.00
2017-09-03T11:27:08.226Z,4.07
2017-09-03T11:29:35.808Z,3.27
2017-09-03T11:32:03.432Z,4.17
2017-09-03T11:34:30.974Z,4.50
2017-09-03T11:36:58.547Z,3.10
2017-09-03T11:39:26.117Z,6.27
2017-09-03T11:41:53.743Z,3.80
2017-09-03T11:44:21.318Z,7.17
2017-09-03T11:46:49.072Z,3.60
2017-09-03T11:49:16.707Z,4.40
2017-09-03T11:51:44.268Z,4.80
2017-09-03T11:54:12.056Z,5.50
2017-09-03T11:56:39.617Z,3.70
2017-09-03T11:59:10.301Z,4.30
2017-09-03T12:01:37.878Z,4.20
2017-09-03T12:04:05.505Z,4.07
2017-09-03T12:06:33.090Z,6.00
2017-09-03T12:09:00.754Z,6.10
2017-09-03T12:11:28.451Z,4.73
2017-09-03T12:13:56.022Z,4.40
2017-09-03T12:16:23.604Z,7.23
2017-09-03T12:18:51.190Z,5.77
2017-09-03T12:21:18.750Z,6.63
2017-09-03T12:23:47.349Z,10.27
2017-09-03T12:26:14.947Z,7.37
2017-09-03T12:28:42.567Z,3.70
2017-09-03T12:31:13.540Z,4.17
2017-09-03T12:33:41.146Z,5.60
2017-09-03T12:36:08.715Z,4.40
2017-09-03T12:38:36.290Z,6.17
2017-09-03T12:41:03.870Z,3.90
2017-09-03T12:43:31.423Z,6.33
2017-09-03T12:45:59.781Z,5.53
2017-09-03T12:48:27.346Z,5.23
2017-09-03T12:50:54.953Z,7.37
2017-09-03T12:53:22.528Z,4.70
2017-09-03T12:55:50.094Z,5.60
2017-09-03T12:58:17.674Z,5.03
2017-09-03T13:00:45.243Z,6.50
2017-09-03T13:03:12.808Z,4.70
2017-09-03T13:05:40.381Z,6.77
2017-09-03T13:08:08.026Z,5.40
2017-09-03T13:10:35.623Z,5.77
2017-09-03T13:13:03.190Z,4.67
2017-09-03T13:15:30.774Z,4.23
2017-09-03T13:17:58.349Z,4.50
2017-09-03T13:20:25.911Z,4.73
2017-09-03T13:22:53.478Z,5.00
2017-09-03T13:25:21.047Z,10.23
2017-09-03T13:27:48.630Z,7.07
2017-09-03T13:30:16.312Z,5.40
2017-09-03T13:32:43.894Z,5.20
2017-09-03T13:35:11.429Z,4.77
2017-09-03T13:37:39.005Z,4.13
2017-09-03T13:40:06.578Z,5.70
2017-09-03T13:42:34.179Z,4.33
2017-09-03T13:45:01.834Z,5.80
2017-09-03T13:47:29.430Z,4.23
2017-09-03T13:49:57.013Z,4.40
2017-09-03T13:52:24.590Z,3.57
2017-09-03T13:54:52.170Z,4.40
2017-09-03T13:57:19.744Z,6.43
2017-09-03T13:59:47.506Z,5.33
2017-09-03T14:02:15.090Z,3.70
2017-09-03T14:04:42.676Z,3.90
2017-09-03T14:07:10.239Z,3.20
2017-09-03T14:09:38.582Z,6.80
2017-09-03T14:12:06.179Z,6.77
2017-09-03T14:14:33.740Z,6.17
2017-09-03T14:17:01.311Z,6.23
2017-09-03T14:19:28.865Z,4.57
2017-09-03T14:21:56.472Z,3.60
2017-09-03T14:24:24.030Z,4.33
2017-09-03T14:26:51.653Z,4.50
2017-09-03T14:29:19.306Z,5.70
2017-09-03T14:31:46.894Z,4.97
2017-09-03T14:34:14.463Z,5.80
2017-09-03T14:36:42.051Z,4.37
2017-09-03T14:39:09.606Z,5.37
2017-09-03T14:41:37.194Z,5.00
2017-09-03T14:44:04.794Z,8.20
2017-09-03T14:46:32.386Z,4.17
2017-09-03T14:48:59.993Z,6.10
2017-09-03T14:51:27.606Z,4.43
2017-09-03T14:53:55.193Z,3.40
2017-09-03T14:56:22.879Z,4.60
2017-09-03T14:58:51.210Z,8.20
2017-09-03T15:01:18.806Z,6.20
2017-09-03T15:03:46.371Z,3.43
2017-09-03T15:06:13.958Z,3.53
2017-09-03T15:08:41.526Z,5.07
2017-09-03T15:11:09.119Z,4.40
2017-09-03T15:13:36.725Z,5.67
2017-09-03T15:16:04.339Z,5.33
2017-09-03T15:18:32.026Z,8.43
2017-09-03T15:21:00.597Z,6.13
2017-09-03T15:23:28.170Z,4.60
2017-09-03T15:25:55.806Z,6.73
2017-09-03T15:28:23.414Z,6.23
2017-09-03T15:30:51.009Z,4.13
2017-09-03T15:33:18.609Z,4.77
2017-09-03T15:35:46.487Z,8.60
2017-09-03T15:38:14.117Z,6.37
2017-09-03T15:40:41.700Z,9.57
2017-09-03T15:43:09.298Z,16.57
2017-09-03T15:45:36.875Z,5.43
2017-09-03T15:48:04.517Z,5.63
2017-09-03T15:50:33.073Z,5.07
2017-09-03T15:53:00.663Z,6.20
2017-09-03T15:55:28.288Z,7.47
2017-09-03T15:57:55.924Z,7.63
2017-09-03T16:00:23.537Z,8.60
2017-09-03T16:02:51.104Z,5.90
2017-09-03T16:05:18.680Z,5.50
2017-09-03T16:07:46.258Z,8.87
2017-09-03T16:10:13.853Z,6.67
2017-09-03T16:12:41.436Z,15.53
2017-09-03T16:15:09.085Z,8.80
2017-09-03T16:17:36.698Z,8.30
2017-09-03T16:20:04.368Z,5.83
2017-09-03T16:22:31.926Z,7.50
2017-09-03T16:24:59.543Z,5.20
2017-09-03T16:27:27.119Z,5.33
2017-09-03T16:29:55.022Z,7.00
2017-09-03T16:32:22.640Z,6.30
2017-09-03T16:34:50.255Z,5.43
2017-09-03T16:37:17.823Z,4.30
2017-09-03T16:39:45.408Z,4.93
2017-09-03T16:42:13.005Z,7.30
2017-09-03T16:44:41.330Z,5.03
2017-09-03T16:47:08.939Z,5.93
2017-09-03T16:49:36.497Z,5.03
2017-09-03T16:52:04.077Z,8.77
2017-09-03T16:54:31.657Z,7.40
2017-09-03T16:56:59.234Z,4.63
2017-09-03T16:59:26.810Z,6.17
2017-09-03T17:01:54.402Z,4.40
2017-09-03T17:04:21.942Z,5.37
2017-09-03T17:06:49.527Z,5.80
2017-09-03T17:09:17.102Z,5.17
2017-09-03T17:11:44.721Z,6.80
2017-09-03T17:14:12.282Z,5.20
2017-09-03T17:16:41.667Z,6.83
2017-09-03T17:19:10.991Z,7.30
2017-09-03T17:21:38.622Z,5.67
2017-09-03T17:24:06.191Z,5.57
2017-09-03T17:26:33.760Z,10.53
2017-09-03T17:29:01.433Z,7.57
2017-09-03T17:31:31.511Z,7.80
2017-09-03T17:33:59.139Z,8.90
2017-09-03T17:36:28.314Z,7.80
2017-09-03T17:39:00.489Z,5.83
2017-09-03T17:41:28.074Z,5.87
2017-09-03T17:43:56.298Z,10.50
2017-09-03T17:46:38.785Z,5.73
2017-09-03T17:49:06.353Z,3.77
2017-09-03T17:51:33.926Z,5.00
2017-09-03T17:54:01.599Z,4.40
2017-09-03T17:56:29.929Z,3.60
2017-09-03T17:58:58.296Z,3.63
2017-09-03T18:01:26.642Z,4.13
2017-09-03T18:03:54.310Z,4.90
2017-09-03T18:06:21.895Z,4.70
2017-09-03T18:08:49.454Z,4.43
2017-09-03T18:11:17.057Z,4.20
2017-09-03T18:13:44.653Z,5.60
2017-09-03T18:16:12.228Z,6.97
2017-09-03T18:18:39.792Z,4.73
2017-09-03T18:21:07.376Z,4.43
2017-09-03T18:23:34.959Z,5.17
2017-09-03T18:26:02.523Z,4.40
2017-09-03T18:28:31.482Z,5.87
2017-09-03T18:30:59.570Z,5.30
2017-09-03T18:33:27.133Z,5.07
2017-09-03T18:35:54.707Z,6.00
2017-09-03T18:38:25.805Z,7.97
2017-09-03T18:40:53.970Z,5.17
2017-09-03T18:43:22.447Z,5.53
2017-09-03T18:45:50.017Z,6.50
2017-09-03T18:48:17.594Z,7.63
2017-09-03T18:50:47.725Z,5.10
2017-09-03T18:53:19.812Z,9.53
2017-09-03T18:55:47.845Z,7.23
2017-09-03T18:58:16.150Z,8.23
2017-09-03T19:00:43.771Z,5.30
2017-09-03T19:03:27.141Z,7.50
2017-09-03T19:05:55.698Z,4.73
2017-09-03T19:08:23.291Z,7.27
2017-09-03T19:10:50.878Z,7.30
2017-09-03T19:13:18.450Z,6.33
2017-09-03T19:15:46.051Z,6.37
2017-09-03T19:18:13.610Z,5.87
2017-09-03T19:20:41.218Z,5.77
2017-09-03T19:23:08.851Z,7.20
2017-09-03T19:25:36.431Z,5.90
2017-09-03T19:28:03.983Z,4.77
2017-09-03T19:30:31.566Z,7.07
2017-09-03T19:32:59.224Z,5.73
2017-09-03T19:35:26.846Z,5.93
2017-09-03T19:37:56.646Z,7.40
2017-09-03T19:40:24.230Z,9.63
2017-09-03T19:42:52.542Z,9.50
2017-09-03T19:45:20.220Z,6.63
2017-09-03T19:47:47.848Z,5.87
2017-09-03T19:50:15.399Z,6.03
2017-09-03T19:52:42.986Z,6.13
2017-09-03T19:55:10.607Z,6.30
2017-09-03T19:57:38.236Z,7.10
2017-09-03T20:00:06.085Z,7.13
2017-09-03T20:02:33.738Z,6.97
2017-09-03T20:05:01.614Z,7.83
2017-09-03T20:07:29.204Z,6.80
2017-09-03T20:09:56.782Z,5.60
2017-09-03T20:12:24.378Z,6.97
2017-09-03T20:14:52.004Z,5.10
2017-09-03T20:17:19.635Z,10.70
2017-09-03T20:19:48.103Z,5.67
2017-09-03T20:22:15.668Z,6.40
2017-09-03T20:24:43.294Z,6.13
2017-09-03T20:27:11.123Z,7.40
2017-09-03T20:29:38.734Z,5.40
2017-09-03T20:32:06.365Z,7.30
2017-09-03T20:34:33.933Z,5.83
2017-09-03T20:37:01.535Z,8.13
2017-09-03T20:39:29.150Z,8.83
2017-09-03T20:41:56.722Z,8.03
2017-09-03T20:44:25.065Z,6.67
2017-09-03T20:46:52.754Z,8.83
2017-09-03T20:49:20.336Z,5.83
2017-09-03T20:51:47.992Z,5.30
2017-09-03T20:54:15.545Z,5.30
2017-09-03T20:56:43.912Z,6.17
2017-09-03T20:59:11.571Z,6.20
2017-09-03T21:01:39.121Z,6.30
2017-09-03T21:04:06.694Z,6.53
2017-09-03T21:06:35.043Z,6.07
2017-09-03T21:09:02.602Z,5.67
2017-09-03T21:11:30.183Z,4.60
2017-09-03T21:13:57.784Z,7.50
2017-09-03T21:16:25.380Z,8.30
2017-09-03T21:18:52.981Z,6.90
2017-09-03T21:21:20.583Z,7.50
2017-09-03T21:23:48.145Z,7.67
2017-09-03T21:26:15.742Z,7.77
2017-09-03T21:28:43.321Z,6.47
2017-09-03T21:31:10.923Z,6.80
2017-09-03T21:33:38.515Z,6.77
2017-09-03T21:36:06.081Z,6.47
2017-09-03T21:38:33.643Z,10.10
2017-09-03T21:41:01.235Z,5.60
2017-09-03T21:43:28.785Z,10.77
2017-09-03T21:45:56.378Z,8.67
2017-09-03T21:48:23.945Z,8.40
2017-09-03T21:50:51.525Z,7.30
2017-09-03T21:53:19.089Z,7.13
2017-09-03T21:55:46.673Z,7.73
2017-09-03T21:58:14.271Z,7.67
2017-09-03T22:00:41.857Z,8.10
2017-09-03T22:03:09.410Z,6.90
2017-09-03T22:05:36.997Z,8.57
2017-09-03T22:08:04.557Z,6.17
2017-09-03T22:10:32.129Z,7.97
2017-09-03T22:12:59.705Z,6.93
2017-09-03T22:15:27.282Z,5.67
2017-09-03T22:17:54.860Z,5.90
2017-09-03T22:20:22.409Z,5.33
2017-09-03T22:22:49.987Z,6.83
2017-09-03T22:25:17.583Z,5.80
2017-09-03T22:27:45.148Z,5.70
2017-09-03T22:30:12.714Z,7.50
2017-09-03T22:32:40.277Z,5.90
2017-09-03T22:35:07.845Z,7.07
2017-09-03T22:37:35.459Z,7.70
2017-09-03T22:40:03.010Z,9.33
2017-09-03T22:42:30.583Z,8.80
2017-09-03T22:44:58.310Z,7.63
2017-09-03T22:47:25.885Z,7.80
2017-09-03T22:49:53.446Z,8.87
2017-09-03T22:52:21.055Z,8.90
2017-09-03T22:54:48.630Z,7.07
2017-09-03T22:57:16.178Z,7.60
2017-09-03T22:59:43.797Z,9.50
2017-09-03T23:02:12.243Z,8.80
2017-09-03T23:04:39.813Z,7.53
2017-09-03T23:07:07.403Z,9.00
2017-09-03T23:09:35.758Z,7.73
2017-09-03T23:12:03.356Z,6.80
2017-09-03T23:14:30.905Z,8.63
2017-09-03T23:16:58.474Z,10.90
2017-09-03T23:19:26.056Z,6.57
2017-09-03T23:21:53.618Z,9.17
2017-09-03T23:24:21.345Z,9.50
2017-09-03T23:26:49.681Z,9.23
2017-09-03T23:29:17.281Z,10.03
2017-09-03T23:31:44.852Z,7.60
2017-09-03T23:34:13.194Z,10.30
2017-09-03T23:36:40.818Z,8.77
2017-09-03T23:39:08.381Z,7.07
2017-09-03T23:41:35.981Z,8.20
2017-09-03T23:44:03.550Z,8.50
2017-09-03T23:46:31.098Z,8.07
2017-09-03T23:48:58.690Z,10.67
2017-09-03T23:51:27.021Z,8.30
2017-09-03T23:53:54.616Z,11.13
2017-09-03T23:56:22.951Z,7.03
2017-09-03T23:58:50.510Z,7.83
